createdAt,value
2018-09-19T00:02:03.652Z,0.70
2018-09-19T00:04:32.066Z,0.60
2018-09-19T00:07:00.653Z,0.68
2018-09-19T00:09:29.091Z,0.72
2018-09-19T00:11:57.541Z,0.90
2018-09-19T00:14:25.957Z,0.80
2018-09-19T00:16:54.419Z,0.78
2018-09-19T00:19:22.837Z,0.78
2018-09-19T00:21:50.990Z,0.93
2018-09-19T00:24:19.409Z,0.80
2018-09-19T00:26:47.848Z,0.70
2018-09-19T00:29:16.272Z,0.65
2018-09-19T00:31:44.766Z,0.90
2018-09-19T00:34:13.140Z,0.78
2018-09-19T00:36:41.579Z,0.98
2018-09-19T00:39:10.203Z,1.05
2018-09-19T00:41:38.364Z,1.45
2018-09-19T00:44:06.817Z,0.95
2018-09-19T00:46:35.273Z,1.60
2018-09-19T00:49:03.708Z,0.80
2018-09-19T00:51:32.190Z,0.93
2018-09-19T00:54:00.602Z,0.98
2018-09-19T00:56:29.112Z,0.90
2018-09-19T00:58:57.538Z,1.02
2018-09-19T01:01:25.675Z,1.17
2018-09-19T01:03:54.083Z,0.90
2018-09-19T01:06:22.544Z,1.00
2018-09-19T01:08:51.016Z,0.78
2018-09-19T01:11:19.445Z,0.60
2018-09-19T01:13:47.912Z,1.12
2018-09-19T01:16:16.433Z,0.85
2018-09-19T01:18:44.890Z,1.07
2018-09-19T01:21:13.419Z,1.10
2018-09-19T01:23:41.841Z,1.52
2018-09-19T01:26:10.276Z,1.10
2018-09-19T01:28:38.689Z,0.82
2018-09-19T01:31:07.320Z,1.30
2018-09-19T01:33:35.802Z,1.00
2018-09-19T01:36:04.242Z,1.12
2018-09-19T01:38:32.697Z,0.90
2018-09-19T01:41:01.144Z,1.37
2018-09-19T01:43:29.627Z,1.00
2018-09-19T01:45:58.063Z,1.00
2018-09-19T01:48:26.505Z,1.17
2018-09-19T01:50:54.923Z,0.80
2018-09-19T01:53:23.375Z,0.90
2018-09-19T01:55:51.801Z,0.90
2018-09-19T01:58:20.303Z,0.60
2018-09-19T02:00:48.714Z,0.90
2018-09-19T02:03:17.905Z,0.80
2018-09-19T02:05:46.327Z,0.90
2018-09-19T02:08:14.797Z,0.93
2018-09-19T02:10:42.887Z,0.98
2018-09-19T02:13:11.344Z,0.90
2018-09-19T02:15:39.778Z,1.05
2018-09-19T02:18:08.413Z,1.10
2018-09-19T02:20:36.874Z,0.90
2018-09-19T02:23:05.324Z,1.02
2018-09-19T02:25:33.771Z,0.65
2018-09-19T02:28:02.306Z,0.95
2018-09-19T02:30:30.747Z,0.72
2018-09-19T02:32:59.172Z,0.70
2018-09-19T02:35:27.620Z,0.98
2018-09-19T02:37:55.763Z,1.07
2018-09-19T02:40:24.181Z,1.07
2018-09-19T02:42:52.636Z,1.12
2018-09-19T02:45:21.081Z,0.93
2018-09-19T02:47:49.533Z,1.10
2018-09-19T02:50:18.005Z,1.30
2018-09-19T02:52:50.680Z,1.00
2018-09-19T02:55:18.781Z,1.00
2018-09-19T02:57:47.239Z,1.07
2018-09-19T03:00:15.648Z,0.90
2018-09-19T03:02:44.301Z,0.70
2018-09-19T03:05:12.821Z,1.32
2018-09-19T03:07:41.316Z,0.98
2018-09-19T03:10:09.723Z,1.12
2018-09-19T03:16:00.052Z,1.00
2018-09-19T03:18:28.506Z,1.15
2018-09-19T03:20:56.898Z,0.93
2018-09-19T03:23:25.305Z,1.12
2018-09-19T03:25:53.416Z,1.00
2018-09-19T03:28:21.913Z,0.90
2018-09-19T03:30:50.446Z,1.00
2018-09-19T03:33:18.581Z,0.80
2018-09-19T03:35:46.660Z,0.90
2018-09-19T03:38:15.083Z,1.10
2018-09-19T03:40:43.508Z,0.90
2018-09-19T03:43:11.929Z,0.90
2018-09-19T03:45:40.366Z,1.07
2018-09-19T03:48:08.796Z,1.20
2018-09-19T03:50:37.227Z,1.02
2018-09-19T03:53:05.677Z,1.70
2018-09-19T03:55:34.330Z,1.02
2018-09-19T03:58:02.780Z,1.00
2018-09-19T04:00:31.200Z,1.02
2018-09-19T04:02:59.584Z,1.15
2018-09-19T04:05:28.018Z,1.00
2018-09-19T04:07:56.470Z,0.90
2018-09-19T04:10:24.895Z,0.80
2018-09-19T04:12:53.304Z,0.98
2018-09-19T04:15:21.754Z,0.90
2018-09-19T04:17:50.232Z,0.75
2018-09-19T04:20:18.645Z,0.82
2018-09-19T04:22:47.020Z,0.80
2018-09-19T04:25:15.701Z,0.85
2018-09-19T04:27:44.147Z,1.05
2018-09-19T04:30:12.572Z,1.00
2018-09-19T04:32:40.965Z,1.00
2018-09-19T04:35:09.397Z,1.27
2018-09-19T04:37:37.812Z,0.98
2018-09-19T04:40:06.354Z,1.50
2018-09-19T04:42:34.773Z,1.52
2018-09-19T04:45:03.279Z,1.90
2018-09-19T04:47:31.466Z,1.60
2018-09-19T04:49:59.621Z,1.32
2018-09-19T04:52:28.041Z,1.62
2018-09-19T04:54:56.505Z,1.37
2018-09-19T04:57:24.945Z,1.25
2018-09-19T04:59:53.382Z,1.17
2018-09-19T05:02:21.806Z,1.47
2018-09-19T05:04:50.230Z,1.27
2018-09-19T05:07:18.682Z,1.57
2018-09-19T05:09:47.181Z,1.00
2018-09-19T05:12:15.632Z,1.17
2018-09-19T05:14:43.765Z,0.90
2018-09-19T05:17:11.853Z,1.12
2018-09-19T05:19:40.332Z,1.30
2018-09-19T05:22:08.760Z,1.65
2018-09-19T05:24:37.416Z,1.60
2018-09-19T05:27:05.537Z,1.52
2018-09-19T05:29:33.644Z,1.70
2018-09-19T05:32:02.053Z,1.62
2018-09-19T05:34:30.524Z,1.35
2018-09-19T05:36:58.925Z,1.80
2018-09-19T05:39:27.329Z,1.65
2018-09-19T05:41:55.765Z,1.85
2018-09-19T05:44:24.177Z,1.40
2018-09-19T05:46:52.597Z,1.05
2018-09-19T05:49:20.996Z,1.40
2018-09-19T05:51:49.442Z,1.20
2018-09-19T05:54:17.841Z,1.25
2018-09-19T05:56:46.273Z,1.30
2018-09-19T05:59:14.668Z,1.20
2018-09-19T06:01:43.096Z,1.35
2018-09-19T06:04:11.513Z,1.35
2018-09-19T06:06:39.961Z,1.12
2018-09-19T06:09:09.976Z,1.30
2018-09-19T06:11:38.472Z,1.35
2018-09-19T06:14:06.972Z,2.40
2018-09-19T06:16:35.447Z,2.25
2018-09-19T06:19:03.908Z,1.98
2018-09-19T06:21:32.050Z,1.67
2018-09-19T06:24:00.457Z,1.40
2018-09-19T06:26:28.902Z,1.20
2018-09-19T06:28:57.300Z,1.05
2018-09-19T06:31:25.740Z,0.95
2018-09-19T06:33:54.141Z,0.78
2018-09-19T06:36:22.593Z,0.90
2018-09-19T06:38:50.988Z,1.12
2018-09-19T06:41:19.453Z,1.25
2018-09-19T06:43:47.940Z,0.93
2018-09-19T06:46:16.392Z,1.00
2018-09-19T06:48:44.826Z,1.70
2018-09-19T06:51:13.272Z,3.70
2018-09-19T06:53:41.675Z,3.30
2018-09-19T06:56:10.112Z,1.65
2018-09-19T06:58:38.217Z,1.12
2018-09-19T07:01:06.692Z,1.40
2018-09-19T07:03:35.108Z,1.30
2018-09-19T07:06:03.258Z,1.20
2018-09-19T07:08:31.692Z,1.45
2018-09-19T07:11:00.121Z,1.25
2018-09-19T07:13:28.584Z,1.30
2018-09-19T07:15:57.005Z,1.17
2018-09-19T07:18:25.411Z,1.32
2018-09-19T07:20:53.825Z,1.22
2018-09-19T07:23:22.246Z,1.22
2018-09-19T07:25:50.652Z,1.32
2018-09-19T07:28:19.098Z,1.30
2018-09-19T07:30:47.485Z,1.35
2018-09-19T07:33:15.905Z,1.22
2018-09-19T07:35:44.483Z,1.20
2018-09-19T07:38:12.621Z,1.55
2018-09-19T07:40:41.061Z,1.32
2018-09-19T07:43:09.486Z,1.47
2018-09-19T07:45:37.897Z,1.07
2018-09-19T07:48:06.367Z,1.35
2018-09-19T07:50:34.470Z,1.62
2018-09-19T07:53:03.725Z,1.60
2018-09-19T07:55:33.508Z,1.55
2018-09-19T07:58:02.047Z,1.20
2018-09-19T08:00:30.796Z,1.52
2018-09-19T08:02:59.218Z,1.52
2018-09-19T08:05:27.683Z,1.40
2018-09-19T08:07:56.150Z,1.57
2018-09-19T08:10:24.593Z,1.82
2018-09-19T08:12:53.041Z,1.22
2018-09-19T08:15:21.457Z,1.30
2018-09-19T08:17:49.898Z,1.60
2018-09-19T08:20:18.302Z,1.32
2018-09-19T08:22:46.821Z,1.40
2018-09-19T08:25:15.229Z,1.42
2018-09-19T08:27:43.709Z,1.70
2018-09-19T08:30:12.111Z,1.52
2018-09-19T08:32:40.552Z,1.55
2018-09-19T08:35:08.984Z,1.90
2018-09-19T08:37:37.412Z,1.72
2018-09-19T08:40:05.824Z,2.05
2018-09-19T08:42:34.272Z,2.10
2018-09-19T08:45:02.739Z,2.35
2018-09-19T08:47:31.168Z,1.75
2018-09-19T08:49:59.564Z,2.00
2018-09-19T08:52:27.989Z,2.22
2018-09-19T08:54:56.404Z,2.15
2018-09-19T08:57:24.840Z,1.75
2018-09-19T08:59:53.248Z,2.12
2018-09-19T09:02:21.885Z,2.12
2018-09-19T09:04:50.320Z,2.10
2018-09-19T09:07:18.742Z,1.40
2018-09-19T09:09:47.185Z,1.70
2018-09-19T09:12:15.669Z,1.85
2018-09-19T09:14:44.073Z,1.80
2018-09-19T09:17:12.486Z,1.90
2018-09-19T09:19:40.924Z,1.70
2018-09-19T09:22:09.333Z,1.77
2018-09-19T09:24:37.771Z,1.65
2018-09-19T09:27:05.967Z,1.95
2018-09-19T09:29:34.393Z,1.85
2018-09-19T09:32:02.774Z,2.00
2018-09-19T09:34:30.905Z,2.02
2018-09-19T09:36:59.008Z,2.02
2018-09-19T09:39:27.521Z,1.98
2018-09-19T09:41:55.917Z,2.08
2018-09-19T09:44:24.352Z,1.82
2018-09-19T09:46:52.768Z,2.10
2018-09-19T09:49:21.208Z,1.72
2018-09-19T09:51:49.324Z,1.90
2018-09-19T09:54:17.761Z,1.77
2018-09-19T09:56:46.147Z,2.25
2018-09-19T09:59:14.581Z,1.80
2018-09-19T10:01:43.004Z,1.72
2018-09-19T10:04:11.486Z,2.05
2018-09-19T10:06:39.945Z,1.70
2018-09-19T10:09:08.652Z,2.10
2018-09-19T10:11:37.075Z,1.98
2018-09-19T10:14:05.489Z,1.90
2018-09-19T10:16:33.917Z,1.65
2018-09-19T10:19:02.346Z,1.82
2018-09-19T10:21:30.750Z,2.00
2018-09-19T10:23:59.201Z,2.17
2018-09-19T10:26:27.307Z,1.67
2018-09-19T10:28:55.728Z,2.15
2018-09-19T10:31:24.173Z,1.82
2018-09-19T10:33:52.608Z,2.25
2018-09-19T10:36:21.013Z,1.77
2018-09-19T10:38:49.443Z,2.12
2018-09-19T10:41:17.605Z,1.77
2018-09-19T10:43:46.062Z,1.55
2018-09-19T10:46:14.508Z,1.82
2018-09-19T10:48:42.662Z,1.72
2018-09-19T10:51:11.099Z,2.00
2018-09-19T10:53:39.545Z,1.50
2018-09-19T10:56:07.993Z,1.72
2018-09-19T10:58:36.404Z,1.87
2018-09-19T11:01:04.555Z,1.87
2018-09-19T11:03:32.961Z,1.98
2018-09-19T11:06:01.408Z,1.90
2018-09-19T11:08:29.520Z,2.12
2018-09-19T11:10:57.969Z,2.15
2018-09-19T11:13:26.077Z,2.60
2018-09-19T11:15:54.497Z,2.45
2018-09-19T11:18:22.896Z,3.05
2018-09-19T11:20:51.390Z,2.95
2018-09-19T11:23:19.854Z,3.40
2018-09-19T11:25:48.306Z,3.47
2018-09-19T11:28:16.720Z,3.20
2018-09-19T11:30:45.158Z,2.98
2018-09-19T11:33:13.613Z,3.60
2018-09-19T11:35:42.064Z,3.52
2018-09-19T11:38:10.463Z,3.45
2018-09-19T11:40:38.599Z,3.75
2018-09-19T11:43:07.137Z,3.47
2018-09-19T11:45:35.553Z,3.17
2018-09-19T11:48:03.993Z,3.67
2018-09-19T11:50:32.421Z,3.62
2018-09-19T11:53:00.917Z,3.22
2018-09-19T11:55:29.328Z,3.37
2018-09-19T11:57:57.763Z,3.27
2018-09-19T12:00:25.892Z,3.17
2018-09-19T12:02:54.370Z,2.75
2018-09-19T12:05:22.820Z,3.40
2018-09-19T12:07:51.266Z,3.55
2018-09-19T12:10:19.772Z,2.70
2018-09-19T12:12:48.302Z,2.62
2018-09-19T12:15:16.734Z,4.00
2018-09-19T12:17:45.155Z,3.15
2018-09-19T12:20:13.606Z,3.10
2018-09-19T12:22:42.042Z,3.22
2018-09-19T12:25:10.187Z,3.87
2018-09-19T12:27:38.598Z,2.87
2018-09-19T12:30:07.057Z,3.37
2018-09-19T12:32:35.176Z,3.20
2018-09-19T12:35:03.676Z,3.42
2018-09-19T12:37:32.114Z,2.50
2018-09-19T12:40:00.530Z,2.47
2018-09-19T12:42:28.978Z,3.62
2018-09-19T12:44:57.385Z,2.98
2018-09-19T12:47:25.835Z,3.25
2018-09-19T12:49:54.237Z,3.40
2018-09-19T12:52:22.661Z,2.98
2018-09-19T12:54:51.087Z,2.65
2018-09-19T12:57:19.529Z,2.62
2018-09-19T12:59:47.922Z,3.08
2018-09-19T13:02:16.357Z,2.92
2018-09-19T13:04:44.794Z,3.17
2018-09-19T13:07:13.308Z,3.00
2018-09-19T13:09:41.743Z,2.90
2018-09-19T13:12:10.209Z,2.80
2018-09-19T13:14:38.617Z,2.50
2018-09-19T13:17:07.117Z,2.98
2018-09-19T13:19:35.544Z,3.05
2018-09-19T13:22:04.008Z,2.83
2018-09-19T13:24:32.444Z,2.72
2018-09-19T13:27:00.861Z,2.80
2018-09-19T13:29:29.271Z,2.95
2018-09-19T13:31:57.696Z,3.22
2018-09-19T13:34:26.092Z,2.30
2018-09-19T13:36:54.537Z,2.90
2018-09-19T13:39:23.020Z,2.45
2018-09-19T13:41:51.529Z,2.65
2018-09-19T13:44:19.936Z,2.42
2018-09-19T13:46:48.377Z,2.95
2018-09-19T13:49:22.033Z,2.98
2018-09-19T13:51:50.461Z,2.00
2018-09-19T13:54:18.872Z,2.67
2018-09-19T13:56:47.313Z,3.12
2018-09-19T13:59:15.725Z,2.47
2018-09-19T14:01:44.245Z,2.77
2018-09-19T14:04:12.658Z,2.95
2018-09-19T14:06:40.844Z,2.65
2018-09-19T14:09:10.002Z,2.75
2018-09-19T14:11:38.627Z,2.98
2018-09-19T14:14:07.101Z,2.58
2018-09-19T14:16:35.517Z,2.62
2018-09-19T14:19:03.708Z,2.67
2018-09-19T14:21:32.108Z,2.98
2018-09-19T14:24:00.577Z,3.00
2018-09-19T14:26:29.052Z,2.80
2018-09-19T14:28:57.484Z,3.42
2018-09-19T14:31:25.893Z,2.67
2018-09-19T14:33:54.067Z,2.80
2018-09-19T14:36:22.476Z,2.40
2018-09-19T14:38:50.660Z,2.10
2018-09-19T14:41:19.140Z,2.72
2018-09-19T14:43:47.236Z,2.80
2018-09-19T14:46:15.823Z,2.47
2018-09-19T14:48:44.377Z,2.90
2018-09-19T14:51:12.740Z,2.80
2018-09-19T14:53:41.469Z,2.70
2018-09-19T14:56:09.883Z,2.50
2018-09-19T14:58:38.300Z,2.42
2018-09-19T15:01:06.744Z,2.60
2018-09-19T15:03:35.460Z,2.80
2018-09-19T15:06:03.912Z,2.80
2018-09-19T15:08:32.625Z,2.55
2018-09-19T15:11:01.045Z,3.02
2018-09-19T15:13:29.485Z,2.35
2018-09-19T15:15:57.602Z,3.05
2018-09-19T15:18:26.019Z,2.90
2018-09-19T15:20:54.577Z,3.05
2018-09-19T15:23:23.001Z,3.10
2018-09-19T15:25:51.396Z,3.10
2018-09-19T15:28:19.948Z,3.02
2018-09-19T15:30:48.345Z,3.10
2018-09-19T15:33:16.756Z,2.80
2018-09-19T15:35:45.185Z,3.10
2018-09-19T15:38:13.760Z,2.98
2018-09-19T15:40:42.209Z,3.02
2018-09-19T15:43:10.598Z,2.70
2018-09-19T15:45:39.062Z,2.75
2018-09-19T15:48:07.156Z,2.58
2018-09-19T15:50:35.587Z,2.50
2018-09-19T15:53:03.996Z,3.15
2018-09-19T15:55:32.427Z,2.58
2018-09-19T15:58:00.852Z,2.87
2018-09-19T16:00:29.896Z,2.92
2018-09-19T16:02:58.295Z,2.87
2018-09-19T16:05:26.721Z,2.72
2018-09-19T16:07:55.129Z,2.50
2018-09-19T16:10:23.584Z,2.50
2018-09-19T16:12:52.065Z,2.83
2018-09-19T16:15:20.209Z,3.05
2018-09-19T16:17:48.606Z,4.20
2018-09-19T16:20:17.028Z,2.62
2018-09-19T16:22:45.466Z,2.85
2018-09-19T16:25:13.586Z,2.77
2018-09-19T16:27:42.156Z,2.87
2018-09-19T16:30:10.565Z,2.83
2018-09-19T16:32:38.968Z,2.70
2018-09-19T16:35:07.115Z,2.87
2018-09-19T16:37:35.532Z,2.90
2018-09-19T16:40:04.016Z,2.90
2018-09-19T16:42:32.404Z,2.60
2018-09-19T16:45:00.828Z,2.50
2018-09-19T16:47:29.265Z,3.10
2018-09-19T16:49:57.774Z,2.83
2018-09-19T16:52:26.186Z,2.70
2018-09-19T16:54:54.584Z,3.02
2018-09-19T16:57:23.058Z,2.92
2018-09-19T16:59:51.604Z,2.83
2018-09-19T17:02:19.887Z,3.33
2018-09-19T17:04:48.289Z,3.12
2018-09-19T17:07:16.934Z,3.20
2018-09-19T17:09:45.428Z,3.70
2018-09-19T17:12:13.904Z,3.20
2018-09-19T17:14:42.541Z,3.45
2018-09-19T17:17:11.075Z,3.17
2018-09-19T17:19:39.653Z,2.77
2018-09-19T17:22:08.085Z,3.00
2018-09-19T17:24:36.497Z,3.40
2018-09-19T17:27:04.931Z,3.33
2018-09-19T17:29:33.339Z,3.35
2018-09-19T17:32:01.823Z,3.72
2018-09-19T17:34:30.341Z,3.08
2018-09-19T17:36:58.792Z,3.33
2018-09-19T17:39:27.192Z,3.45
2018-09-19T17:41:55.617Z,3.50
2018-09-19T17:44:24.210Z,3.30
2018-09-19T17:46:52.680Z,3.15
2018-09-19T17:49:21.097Z,2.67
2018-09-19T17:51:49.569Z,3.22
2018-09-19T17:54:17.982Z,3.27
2018-09-19T17:56:46.226Z,3.70
2018-09-19T17:59:14.672Z,4.00
2018-09-19T18:01:43.100Z,3.77
2018-09-19T18:04:11.532Z,3.60
2018-09-19T18:06:39.841Z,3.45
2018-09-19T18:09:08.406Z,3.67
2018-09-19T18:11:37.064Z,4.28
2018-09-19T18:14:05.336Z,4.33
2018-09-19T18:16:33.845Z,4.70
2018-09-19T18:19:02.321Z,4.00
2018-09-19T18:21:30.773Z,4.17
2018-09-19T18:23:59.181Z,4.47
2018-09-19T18:26:27.596Z,4.72
2018-09-19T18:28:55.994Z,3.83
2018-09-19T18:31:25.582Z,3.87
2018-09-19T18:33:54.111Z,4.50
2018-09-19T18:36:22.582Z,3.60
2018-09-19T18:38:51.023Z,3.90
2018-09-19T18:41:19.644Z,4.10
2018-09-19T18:43:48.061Z,4.47
2018-09-19T18:46:16.481Z,4.40
2018-09-19T18:48:45.029Z,4.50
2018-09-19T18:51:13.450Z,4.33
2018-09-19T18:53:41.885Z,4.08
2018-09-19T18:56:10.294Z,4.30
2018-09-19T18:58:38.737Z,4.87
2018-09-19T19:01:07.277Z,4.55
2018-09-19T19:03:35.709Z,4.40
2018-09-19T19:06:04.114Z,4.67
2018-09-19T19:08:32.564Z,4.85
2018-09-19T19:11:01.067Z,4.70
2018-09-19T19:13:29.525Z,5.10
2018-09-19T19:15:58.044Z,5.75
2018-09-19T19:18:26.468Z,4.97
2018-09-19T19:20:54.921Z,6.05
2018-09-19T19:23:23.361Z,5.20
2018-09-19T19:25:51.901Z,4.85
2018-09-19T19:28:21.253Z,4.95
2018-09-19T19:30:49.793Z,4.62
2018-09-19T19:33:18.234Z,5.00
2018-09-19T19:35:46.685Z,5.22
2018-09-19T19:38:15.137Z,4.30
2018-09-19T19:40:43.244Z,5.45
2018-09-19T19:43:11.694Z,4.72
2018-09-19T19:45:40.127Z,5.75
2018-09-19T19:48:08.585Z,5.22
2018-09-19T19:50:37.089Z,4.95
2018-09-19T19:53:05.679Z,5.05
2018-09-19T19:55:34.100Z,4.47
2018-09-19T19:58:02.533Z,5.53
2018-09-19T20:00:30.616Z,5.37
2018-09-19T20:02:59.087Z,6.00
2018-09-19T20:05:27.509Z,5.58
2018-09-19T20:07:55.931Z,6.10
2018-09-19T20:10:24.368Z,5.97
2018-09-19T20:12:52.828Z,5.00
2018-09-19T20:15:21.365Z,5.67
2018-09-19T20:17:49.770Z,5.85
2018-09-19T20:20:18.299Z,5.53
2018-09-19T20:22:46.734Z,6.17
2018-09-19T20:25:15.187Z,5.75
2018-09-19T20:27:43.617Z,6.60
2018-09-19T20:30:12.060Z,5.87
2018-09-19T20:32:40.510Z,5.70
2018-09-19T20:35:09.118Z,6.10
2018-09-19T20:37:37.557Z,5.55
2018-09-19T20:40:05.777Z,5.92
2018-09-19T20:42:34.179Z,5.85
2018-09-19T20:45:02.602Z,5.53
2018-09-19T20:47:31.006Z,5.97
2018-09-19T20:49:59.461Z,6.62
2018-09-19T20:52:58.645Z,5.58
2018-09-19T20:55:27.099Z,6.00
2018-09-19T20:57:55.512Z,5.70
2018-09-19T21:00:23.949Z,6.15
2018-09-19T21:02:52.097Z,5.92
2018-09-19T21:05:20.526Z,5.28
2018-09-19T21:07:48.996Z,5.53
2018-09-19T21:10:17.475Z,5.42
2018-09-19T21:12:45.892Z,5.62
2018-09-19T21:15:14.308Z,5.72
2018-09-19T21:17:42.853Z,5.53
2018-09-19T21:20:11.284Z,6.28
2018-09-19T21:22:39.745Z,5.80
2018-09-19T21:25:07.924Z,6.08
2018-09-19T21:27:36.409Z,5.53
2018-09-19T21:30:04.537Z,5.28
2018-09-19T21:32:32.938Z,6.25
2018-09-19T21:35:01.371Z,5.85
2018-09-19T21:37:30.136Z,5.33
2018-09-19T21:39:58.251Z,6.20
2018-09-19T21:42:26.661Z,5.62
2018-09-19T21:44:55.124Z,5.17
2018-09-19T21:47:23.268Z,4.92
2018-09-19T21:49:51.688Z,5.17
2018-09-19T21:52:20.094Z,5.65
2018-09-19T21:54:48.531Z,5.00
2018-09-19T21:57:16.640Z,5.90
2018-09-19T21:59:45.092Z,4.62
2018-09-19T22:02:17.036Z,5.00
2018-09-19T22:04:46.802Z,5.35
2018-09-19T22:07:14.918Z,5.30
2018-09-19T22:09:43.469Z,4.42
2018-09-19T22:12:12.300Z,4.62
2018-09-19T22:14:42.335Z,4.85
2018-09-19T22:17:10.480Z,5.20
2018-09-19T22:19:38.688Z,5.37
2018-09-19T22:22:07.140Z,4.83
2018-09-19T22:24:35.541Z,4.10
2018-09-19T22:27:03.700Z,5.00
2018-09-19T22:29:32.144Z,4.17
2018-09-19T22:32:00.584Z,4.62
2018-09-19T22:34:28.973Z,4.97
2018-09-19T22:36:57.388Z,5.53
2018-09-19T22:39:25.797Z,5.12
2018-09-19T22:41:54.245Z,4.95
2018-09-19T22:44:22.638Z,5.17
2018-09-19T22:46:51.086Z,5.28
2018-09-19T22:49:19.509Z,5.30
2018-09-19T22:51:47.957Z,4.90
2018-09-19T22:54:16.373Z,5.53
2018-09-19T22:56:44.793Z,4.40
2018-09-19T22:59:13.209Z,4.72
2018-09-19T23:01:41.646Z,5.00
2018-09-19T23:04:10.051Z,4.58
2018-09-19T23:06:38.517Z,5.55
2018-09-19T23:09:07.877Z,4.58
2018-09-19T23:11:36.300Z,5.65
2018-09-19T23:14:04.702Z,4.47
2018-09-19T23:16:33.179Z,4.22
2018-09-19T23:19:01.601Z,4.20
2018-09-19T23:21:30.032Z,4.20
2018-09-19T23:23:58.515Z,4.33
2018-09-19T23:26:26.936Z,4.00
2018-09-19T23:28:55.048Z,4.15
2018-09-19T23:31:23.485Z,4.42
2018-09-19T23:33:51.905Z,3.80
2018-09-19T23:36:20.321Z,3.77
2018-09-19T23:38:48.745Z,3.85
2018-09-19T23:41:17.199Z,4.50
2018-09-19T23:43:45.381Z,4.30
2018-09-19T23:46:13.861Z,3.83
2018-09-19T23:48:42.280Z,3.52
2018-09-19T23:51:10.721Z,4.03
2018-09-19T23:53:39.177Z,3.55
2018-09-19T23:56:07.614Z,3.77
2018-09-19T23:58:36.000Z,3.95
